sensor_id;sensor_type;location;lat;lon;timestamp;P1;durP1;ratioP1;P2;durP2;ratioP2
11596;SDS011;5854;48.072;16.286;2022-11-27T07:58:21;16.42;;;8.75;;
11596;SDS011;5854;48.072;16.286;2022-11-27T08:00:50;11.07;;;8.73;;
11596;SDS011;5854;48.072;16.286;2022-11-27T08:03:17;13.13;;;10.60;;
11596;SDS011;5854;48.072;16.286;2022-11-27T08:05:51;20.48;;;10.68;;
11596;SDS011;5854;48.072;16.286;2022-11-27T08:08:22;16.38;;;9.70;;
11596;SDS011;5854;48.072;16.286;2022-11-27T08:10:53;20.63;;;10.93;;
11596;SDS011;5854;48.072;16.286;2022-11-27T08:13:31;18.27;;;10.85;;
11596;SDS011;5854;48.072;16.286;2022-11-27T08:16:01;17.52;;;10.98;;
11596;SDS011;5854;48.072;16.286;2022-11-27T08:18:41;15.57;;;9.07;;
11596;SDS011;5854;48.072;16.286;2022-11-27T08:21:28;17.13;;;10.25;;
11596;SDS011;5854;48.072;16.286;2022-11-27T08:24:01;19.63;;;8.63;;
11596;SDS011;5854;48.072;16.286;2022-11-27T08:26:30;24.73;;;9.50;;
11596;SDS011;5854;48.072;16.286;2022-11-27T08:28:59;19.88;;;10.70;;
11596;SDS011;5854;48.072;16.286;2022-11-27T08:31:27;14.75;;;9.63;;
11596;SDS011;5854;48.072;16.286;2022-11-27T08:33:54;12.93;;;10.35;;
11596;SDS011;5854;48.072;16.286;2022-11-27T08:36:23;12.00;;;9.65;;
11596;SDS011;5854;48.072;16.286;2022-11-27T08:38:51;15.80;;;9.88;;
11596;SDS011;5854;48.072;16.286;2022-11-27T08:41:19;17.65;;;9.75;;
11596;SDS011;5854;48.072;16.286;2022-11-27T08:43:50;15.40;;;11.32;;
11596;SDS011;5854;48.072;16.286;2022-11-27T08:46:21;16.05;;;11.65;;
11596;SDS011;5854;48.072;16.286;2022-11-27T10:14:09;15.50;;;9.07;;
11596;SDS011;5854;48.072;16.286;2022-11-27T10:19:30;15.02;;;8.98;;
11596;SDS011;5854;48.072;16.286;2022-11-27T10:24:40;13.30;;;9.38;;
11596;SDS011;5854;48.072;16.286;2022-11-27T10:27:21;19.33;;;8.98;;
11596;SDS011;5854;48.072;16.286;2022-11-27T10:29:58;14.25;;;8.73;;
11596;SDS011;5854;48.072;16.286;2022-11-27T10:40:17;13.30;;;7.22;;
11596;SDS011;5854;48.072;16.286;2022-11-27T11:01:16;10.65;;;5.78;;
11596;SDS011;5854;48.072;16.286;2022-11-27T11:16:40;10.65;;;6.15;;
11596;SDS011;5854;48.072;16.286;2022-11-27T11:26:39;7.90;;;5.88;;
11596;SDS011;5854;48.072;16.286;2022-11-27T11:29:19;11.45;;;6.32;;
11596;SDS011;5854;48.072;16.286;2022-11-27T11:40:26;8.00;;;6.53;;
11596;SDS011;5854;48.072;16.286;2022-11-27T11:42:57;10.63;;;5.95;;
11596;SDS011;5854;48.072;16.286;2022-11-27T12:37:15;8.20;;;5.35;;
11596;SDS011;5854;48.072;16.286;2022-11-27T12:43:00;15.48;;;6.20;;
11596;SDS011;5854;48.072;16.286;2022-11-27T12:45:38;16.23;;;6.68;;
11596;SDS011;5854;48.072;16.286;2022-11-27T12:48:11;10.30;;;6.43;;
11596;SDS011;5854;48.072;16.286;2022-11-27T12:50:44;12.13;;;5.95;;
11596;SDS011;5854;48.072;16.286;2022-11-27T12:53:20;10.05;;;6.65;;
11596;SDS011;5854;48.072;16.286;2022-11-27T12:55:58;12.77;;;6.65;;
11596;SDS011;5854;48.072;16.286;2022-11-27T12:58:49;10.05;;;5.78;;
11596;SDS011;5854;48.072;16.286;2022-11-27T13:27:14;10.70;;;5.32;;
11596;SDS011;5854;48.072;16.286;2022-11-27T13:29:44;10.32;;;4.55;;
11596;SDS011;5854;48.072;16.286;2022-11-27T13:32:18;5.65;;;3.58;;
11596;SDS011;5854;48.072;16.286;2022-11-27T13:34:47;6.43;;;3.50;;
11596;SDS011;5854;48.072;16.286;2022-11-27T13:37:36;10.48;;;3.40;;
11596;SDS011;5854;48.072;16.286;2022-11-27T13:40:23;6.15;;;3.40;;
11596;SDS011;5854;48.072;16.286;2022-11-27T13:42:54;11.55;;;3.30;;
11596;SDS011;5854;48.072;16.286;2022-11-27T13:45:23;6.20;;;3.17;;
11596;SDS011;5854;48.072;16.286;2022-11-27T13:48:04;5.68;;;3.63;;
11596;SDS011;5854;48.072;16.286;2022-11-27T14:28:21;3.70;;;2.85;;
11596;SDS011;5854;48.072;16.286;2022-11-27T15:46:41;5.80;;;3.28;;
11596;SDS011;5854;48.072;16.286;2022-11-27T15:49:10;5.28;;;3.35;;
11596;SDS011;5854;48.072;16.286;2022-11-27T15:51:40;7.40;;;3.45;;
11596;SDS011;5854;48.072;16.286;2022-11-27T16:12:08;4.93;;;3.70;;
11596;SDS011;5854;48.072;16.286;2022-11-27T16:14:40;4.70;;;3.53;;
11596;SDS011;5854;48.072;16.286;2022-11-27T16:17:15;6.47;;;4.93;;
11596;SDS011;5854;48.072;16.286;2022-11-27T16:30:27;10.65;;;4.53;;
11596;SDS011;5854;48.072;16.286;2022-11-27T16:33:09;8.20;;;4.20;;
11596;SDS011;5854;48.072;16.286;2022-11-27T16:36:47;6.45;;;3.60;;
11596;SDS011;5854;48.072;16.286;2022-11-27T16:55:15;4.75;;;4.32;;
11596;SDS011;5854;48.072;16.286;2022-11-27T17:04:49;5.15;;;4.63;;
11596;SDS011;5854;48.072;16.286;2022-11-27T17:07:40;5.80;;;5.28;;
11596;SDS011;5854;48.072;16.286;2022-11-27T17:14:16;8.93;;;5.18;;
11596;SDS011;5854;48.072;16.286;2022-11-27T17:16:45;9.77;;;6.03;;
11596;SDS011;5854;48.072;16.286;2022-11-27T17:34:58;6.47;;;5.40;;
11596;SDS011;5854;48.072;16.286;2022-11-27T17:37:38;6.88;;;4.75;;
11596;SDS011;5854;48.072;16.286;2022-11-27T17:40:15;9.88;;;5.40;;
11596;SDS011;5854;48.072;16.286;2022-11-27T17:42:44;7.30;;;5.30;;
11596;SDS011;5854;48.072;16.286;2022-11-27T17:45:12;5.20;;;4.78;;
11596;SDS011;5854;48.072;16.286;2022-11-27T17:47:39;7.97;;;5.00;;
11596;SDS011;5854;48.072;16.286;2022-11-27T18:03:29;8.88;;;5.63;;
11596;SDS011;5854;48.072;16.286;2022-11-27T18:06:07;8.93;;;5.90;;
11596;SDS011;5854;48.072;16.286;2022-11-27T18:08:38;8.15;;;6.05;;
11596;SDS011;5854;48.072;16.286;2022-11-27T18:16:42;7.25;;;5.43;;
11596;SDS011;5854;48.072;16.286;2022-11-27T18:19:26;6.65;;;5.70;;
11596;SDS011;5854;48.072;16.286;2022-11-27T18:22:15;8.43;;;5.65;;
11596;SDS011;5854;48.072;16.286;2022-11-27T18:24:48;8.82;;;6.60;;
11596;SDS011;5854;48.072;16.286;2022-11-27T18:45:20;18.50;;;10.70;;
11596;SDS011;5854;48.072;16.286;2022-11-27T20:23:54;51.50;;;25.80;;
